CYRL - Red Lake Airport

Pirep is a free, collaborative database of all public and private airports located within the United States. All pilots are welcome to contribute, edit, and improve any airport they have local knowledge about, no registration required.
Are you familiar with this airport? Help out other pilots by adding your local knowledge.
Uploaded photos will be licensed under a CC BY-SA 4.0 license. Please only upload photos you have the rights to use.
Tags
Public
Undocu­mented
METAR / TAF
Edit Tags
Food
Camping
Lodging
Car Rental
Bicycles
Swimming
Golfing
Fishing
Hot Springs
Museum
Flying Clubs
Airpark
Upcoming Events
No upcoming events. Is anything happening here soon?
*
*
*

Where exactly on/near the airport is this event taking place?

Is there a webpage with more information for this event?

Who should be contacted for more information?

What is this event all about?

Repeat every
Description
Transient Parking
Fuel Location
Landing & Tie-down Fees
Crew Car Availability
Flying Clubs
WiFi Access
Airport Statistics
Location: Red Lake, Ontario
Elevation: 1,265ft
Runway 08/26: 5,001ft
Warning: This airport was imported from a non-authoritative source. It's public/private status may not be accurate.
Access: Open to the public
Current Weather — VFR
  • Weather data is strictly informational and not for flight planning purposes.
  • METAR
    2024-06-17 21:00:00 CDT
    Ceiling Wind Temperature Dewpoint Weather Visbility
    Sky clear 330° @ 2kt 64°F 42°F N/A 15SM
    Clouds: Scattered @ 11,000ft, Scattered @ 24,000ft
    Raw: CYRL 180200Z 33002KT 15SM SCT110 SCT240 18/06 A2979 RMK AC3CI1 CI TR LAST STFD OBS/NEXT 180900UTC SLP093 DENSITY ALT 2100FT
  • TAF
    2024-06-17 15:00:00 CDT – 2024-06-17 17:00:00 CDT
    Ceiling Wind Weather Visbility
    Sky clear 240° @ 12kt N/A 6SM
    Clouds: @ ft
    Raw: TAF CYRL 171940Z 1720/1802 24012KT P6SM SKC BECMG 1722/1724 26006KT RMK NXT FCST BY 181100Z
  • TAF
    2024-06-17 17:00:00 CDT – 2024-06-17 21:00:00 CDT
    Ceiling Wind Weather Visbility
    Sky clear 260° @ 6kt N/A 6SM
    Clouds: @ ft
    Raw: TAF CYRL 171940Z 1720/1802 24012KT P6SM SKC BECMG 1722/1724 26006KT RMK NXT FCST BY 181100Z
Click/tap to add an annotation marker to the map
Airport Webcams
No webcams added yet.
Direct links to live image URLs will be displayed inline on this page. URLs to separate webpages will be linked to.
URL:
Direct links to live image URLs will be displayed inline on this page. URLs to separate webpages will be linked to.
URL:
Comments
Leave a comment What was your experience like at this airport?